Terminal Aerodrome Forecast
Issued by NWS Sioux Falls, SD

Home | Current Version | Previous Version | Text Only | Print | Product List | Glossary On
Versions: 1 2 3 4 5 6 7 8 9 10 11 12 13 14 15 16 17 18 19 20 21 22 23 24 25 26 27 28 29 30 31 32 33 34 35 36 37 38 39 40 41 42 43 44 45
000
FTUS43 KFSD 011745
TAFSUX
TAF
KSUX 011745Z 0118/0218 23006KT P6SM SCT015
     FM011900 VRB04KT P6SM SCT025
     FM020300 01006KT P6SM SCT030 BKN120
     FM021200 36006KT P6SM SCT015 OVC070
     FM021500 35009KT P6SM -SHRA BKN015 OVC035=

USA.gov is the U.S. government's official web portal to all federal, state and local government web resources and services.